Terminal Aerodrome Forecast
Issued by NWS Wakefield, VA

Home | Current Version | Previous Version | Text Only | Print | Product List | Glossary On
Versions: 1 2 3 4 5 6 7 8 9 10 11 12 13 14 15 16 17 18
000
FTUS41 KAKQ 290526
TAFRIC
TAF
KRIC 290526Z 2906/3006 19003KT P6SM BKN250
     FM291000 18003KT P6SM SCT025 BKN250
     FM291400 15008KT P6SM SCT040=

USA.gov is the U.S. government's official web portal to all federal, state and local government web resources and services.